createdAt,value
2023-01-30T00:02:38.453Z,33.47
2023-01-30T00:05:47.779Z,34.78
2023-01-30T00:08:56.997Z,33.15
2023-01-30T00:12:08.495Z,32.15
2023-01-30T00:15:17.930Z,34.33
2023-01-30T00:18:27.203Z,23.97
2023-01-30T00:21:36.437Z,31.15
2023-01-30T00:24:45.728Z,29.67
2023-01-30T00:27:56.681Z,31.80
2023-01-30T00:31:06.078Z,31.38
2023-01-30T00:34:15.622Z,31.40
2023-01-30T00:37:24.938Z,30.00
2023-01-30T00:40:34.229Z,30.38
2023-01-30T00:44:02.530Z,26.45
2023-01-30T00:47:12.131Z,30.35
2023-01-30T00:50:21.391Z,29.40
2023-01-30T00:53:30.671Z,33.97
2023-01-30T00:56:39.938Z,27.60
2023-01-30T00:59:50.871Z,27.83
2023-01-30T01:03:00.139Z,27.98
2023-01-30T01:06:09.526Z,25.48
2023-01-30T01:09:19.092Z,25.20
2023-01-30T01:12:28.321Z,21.10
2023-01-30T01:15:39.088Z,19.88
2023-01-30T01:18:48.477Z,22.85
2023-01-30T01:21:57.861Z,23.27
2023-01-30T01:25:08.519Z,22.33
2023-01-30T01:28:21.751Z,24.45
2023-01-30T01:31:32.805Z,22.67
2023-01-30T01:34:42.365Z,21.73
2023-01-30T01:37:54.888Z,20.13
2023-01-30T01:41:06.300Z,16.75
2023-01-30T01:44:18.313Z,16.58
2023-01-30T01:50:42.944Z,16.58
2023-01-30T01:53:55.547Z,21.65
2023-01-30T01:57:08.648Z,22.02
2023-01-30T02:00:20.115Z,18.60
2023-01-30T02:03:33.988Z,14.02
2023-01-30T02:06:43.749Z,17.48
2023-01-30T02:09:53.607Z,15.70
2023-01-30T02:13:02.915Z,19.10
2023-01-30T02:16:12.475Z,20.15
2023-01-30T02:19:28.428Z,23.17
2023-01-30T02:22:57.522Z,23.42
2023-01-30T02:26:51.064Z,21.02
2023-01-30T02:30:47.463Z,19.73
2023-01-30T02:34:12.937Z,21.20
2023-01-30T02:37:30.790Z,23.90
2023-01-30T02:40:46.223Z,20.85
2023-01-30T02:44:01.699Z,22.80
2023-01-30T02:47:13.638Z,21.33
2023-01-30T02:50:27.147Z,23.25
2023-01-30T02:53:37.575Z,21.35
2023-01-30T02:56:50.087Z,22.30
2023-01-30T03:00:01.221Z,17.02
2023-01-30T03:03:32.569Z,23.90
2023-01-30T03:06:56.904Z,25.25
2023-01-30T03:10:11.056Z,20.60
2023-01-30T03:13:34.905Z,19.67
2023-01-30T03:16:45.535Z,23.92
2023-01-30T03:19:55.847Z,20.50
2023-01-30T03:23:06.629Z,16.75
2023-01-30T03:26:20.347Z,21.27
2023-01-30T03:29:29.835Z,20.80
2023-01-30T03:32:39.236Z,19.20
2023-01-30T03:35:49.398Z,24.63
2023-01-30T03:39:00.756Z,24.80
2023-01-30T03:42:10.717Z,22.50
2023-01-30T03:45:20.322Z,21.90
2023-01-30T03:48:30.490Z,23.17
2023-01-30T03:51:43.076Z,31.67
2023-01-30T03:54:54.118Z,24.45
2023-01-30T03:58:03.631Z,27.92
2023-01-30T04:01:15.356Z,28.42
2023-01-30T04:04:24.892Z,22.43
2023-01-30T04:07:34.484Z,21.20
2023-01-30T04:10:45.368Z,24.33
2023-01-30T04:13:55.962Z,25.75
2023-01-30T04:20:28.268Z,29.77
2023-01-30T04:23:39.324Z,27.15
2023-01-30T04:26:51.771Z,17.38
2023-01-30T04:30:01.715Z,19.98
2023-01-30T04:33:11.260Z,18.17
2023-01-30T04:36:20.809Z,23.23
2023-01-30T04:39:30.151Z,21.10
2023-01-30T04:42:41.230Z,17.50
2023-01-30T04:46:16.847Z,25.80
2023-01-30T04:49:26.492Z,21.83
2023-01-30T04:55:47.932Z,18.48
2023-01-30T04:58:58.707Z,18.97
2023-01-30T05:02:11.751Z,18.23
2023-01-30T05:05:21.175Z,17.50
2023-01-30T05:08:30.561Z,14.97
2023-01-30T05:11:40.683Z,11.43
2023-01-30T05:14:51.651Z,15.13
2023-01-30T05:18:01.292Z,11.60
2023-01-30T05:21:12.213Z,12.88
2023-01-30T05:24:21.671Z,14.55
2023-01-30T05:27:30.941Z,12.40
2023-01-30T05:30:41.929Z,16.77
2023-01-30T05:33:52.559Z,15.38
2023-01-30T05:37:01.874Z,12.73
2023-01-30T05:40:12.487Z,16.30
2023-01-30T05:43:21.829Z,16.58
2023-01-30T05:46:32.623Z,24.73
2023-01-30T05:49:42.016Z,14.98
2023-01-30T05:52:51.590Z,17.43
2023-01-30T05:56:02.270Z,13.73
2023-01-30T05:59:13.587Z,13.70
2023-01-30T06:02:24.521Z,13.73
2023-01-30T06:05:33.844Z,15.35
2023-01-30T06:08:43.265Z,14.63
2023-01-30T06:11:55.423Z,19.53
2023-01-30T06:15:04.898Z,15.05
2023-01-30T06:18:15.674Z,13.70
2023-01-30T06:21:25.110Z,20.13
2023-01-30T06:24:34.418Z,19.60
2023-01-30T06:27:44.730Z,12.38
2023-01-30T06:30:54.733Z,16.73
2023-01-30T06:34:05.608Z,17.83
2023-01-30T06:37:15.113Z,20.15
2023-01-30T06:40:24.552Z,15.20
2023-01-30T06:43:33.972Z,17.90
2023-01-30T06:46:43.449Z,15.27
2023-01-30T06:49:54.328Z,21.33
2023-01-30T06:53:05.415Z,19.17
2023-01-30T06:56:15.820Z,16.42
2023-01-30T06:59:25.294Z,19.48
2023-01-30T07:02:35.843Z,18.10
2023-01-30T07:05:47.552Z,17.63
2023-01-30T07:08:58.743Z,18.77
2023-01-30T07:12:08.319Z,16.95
2023-01-30T07:15:18.075Z,15.52
2023-01-30T07:18:27.654Z,19.65
2023-01-30T07:21:38.570Z,17.52
2023-01-30T07:24:48.017Z,18.02
2023-01-30T07:27:58.725Z,19.03
2023-01-30T07:31:08.062Z,20.92
2023-01-30T07:34:17.343Z,18.42
2023-01-30T07:37:28.222Z,20.77
2023-01-30T07:40:37.714Z,17.88
2023-01-30T07:43:47.039Z,16.77
2023-01-30T07:46:56.342Z,21.67
2023-01-30T07:50:06.531Z,21.52
2023-01-30T07:56:27.940Z,25.10
2023-01-30T07:59:37.169Z,25.83
2023-01-30T08:02:46.446Z,30.20
2023-01-30T08:05:55.798Z,27.50
2023-01-30T08:09:06.997Z,28.67
2023-01-30T08:12:16.332Z,29.23
2023-01-30T08:15:25.550Z,34.53
2023-01-30T08:18:35.508Z,35.10
2023-01-30T08:21:44.854Z,28.88
2023-01-30T08:24:55.532Z,24.08
2023-01-30T08:28:05.459Z,35.60
2023-01-30T08:31:15.656Z,35.20
2023-01-30T08:37:34.082Z,34.40
2023-01-30T08:40:44.945Z,32.67
2023-01-30T08:43:54.287Z,29.85
2023-01-30T08:47:03.580Z,31.80
2023-01-30T08:50:13.166Z,26.45
2023-01-30T08:53:23.204Z,27.92
2023-01-30T08:56:33.882Z,34.60
2023-01-30T08:59:43.448Z,28.85
2023-01-30T09:02:54.670Z,40.30
2023-01-30T09:06:04.052Z,33.85
2023-01-30T09:09:13.381Z,30.63
2023-01-30T09:12:24.206Z,41.63
2023-01-30T09:15:33.684Z,39.08
2023-01-30T09:18:44.222Z,34.70
2023-01-30T09:21:54.270Z,32.88
2023-01-30T09:25:03.527Z,38.33
2023-01-30T09:28:14.399Z,30.70
2023-01-30T09:31:23.829Z,32.47
2023-01-30T09:34:33.203Z,28.37
2023-01-30T09:37:49.079Z,35.77
2023-01-30T09:41:22.130Z,27.88
2023-01-30T09:44:49.415Z,30.58
2023-01-30T09:48:06.725Z,36.25
2023-01-30T09:51:36.518Z,29.23
2023-01-30T09:54:47.212Z,34.80
2023-01-30T09:57:59.517Z,29.20
2023-01-30T10:01:16.954Z,26.75
2023-01-30T10:04:31.085Z,31.48
2023-01-30T10:07:50.631Z,33.50
2023-01-30T10:11:10.223Z,30.17
2023-01-30T10:14:32.821Z,28.95
2023-01-30T10:17:34.319Z,25.17
2023-01-30T10:20:15.858Z,26.08
2023-01-30T10:22:56.412Z,27.52
2023-01-30T10:25:29.542Z,30.92
2023-01-30T10:28:02.669Z,27.52
2023-01-30T10:30:31.870Z,29.27
2023-01-30T10:33:04.460Z,30.97
2023-01-30T10:35:36.035Z,29.25
2023-01-30T10:38:09.349Z,26.85
2023-01-30T10:40:42.947Z,35.72
2023-01-30T10:43:18.693Z,30.90
2023-01-30T10:45:51.653Z,28.88
2023-01-30T10:48:45.569Z,31.27
2023-01-30T10:51:22.751Z,30.08
2023-01-30T10:53:55.339Z,30.40
2023-01-30T10:56:29.383Z,35.85
2023-01-30T10:59:02.781Z,35.63
2023-01-30T11:01:34.541Z,38.72
2023-01-30T11:04:06.149Z,32.88
2023-01-30T11:06:36.754Z,26.20
2023-01-30T11:09:05.893Z,22.20
2023-01-30T11:11:40.766Z,25.10
2023-01-30T11:14:11.505Z,25.42
2023-01-30T11:16:45.848Z,34.70
2023-01-30T11:19:20.595Z,28.83
2023-01-30T11:21:52.114Z,30.52
2023-01-30T11:24:22.850Z,24.00
2023-01-30T11:26:53.251Z,32.65
2023-01-30T11:29:30.588Z,22.45
2023-01-30T11:32:03.880Z,20.17
2023-01-30T11:34:34.559Z,29.17
2023-01-30T11:37:17.368Z,23.52
2023-01-30T11:39:52.127Z,26.75
2023-01-30T11:42:22.320Z,21.60
2023-01-30T11:47:25.653Z,23.25
2023-01-30T11:50:21.582Z,22.05
2023-01-30T11:52:48.658Z,26.00
2023-01-30T11:55:19.737Z,22.05
2023-01-30T11:57:54.006Z,17.65
2023-01-30T12:00:25.193Z,22.83
2023-01-30T12:02:55.351Z,16.13
2023-01-30T12:08:14.392Z,24.13
2023-01-30T12:10:44.802Z,23.83
2023-01-30T12:13:19.611Z,23.40
2023-01-30T12:15:52.984Z,20.35
2023-01-30T12:18:27.508Z,21.08
2023-01-30T12:21:01.602Z,27.80
2023-01-30T12:23:38.180Z,22.38
2023-01-30T12:26:12.179Z,19.50
2023-01-30T12:28:46.876Z,20.60
2023-01-30T12:31:20.726Z,23.58
2023-01-30T12:33:50.352Z,25.35
2023-01-30T12:36:29.250Z,20.73
2023-01-30T12:39:07.346Z,24.65
2023-01-30T12:41:54.964Z,21.23
2023-01-30T12:44:40.472Z,24.60
2023-01-30T12:47:19.032Z,20.98
2023-01-30T12:49:58.516Z,18.38
2023-01-30T12:52:57.598Z,18.43
2023-01-30T12:55:35.332Z,19.80
2023-01-30T12:58:11.479Z,15.43
2023-01-30T13:00:49.936Z,19.83
2023-01-30T13:03:29.019Z,19.58
2023-01-30T13:06:05.998Z,19.77
2023-01-30T13:09:01.422Z,20.42
2023-01-30T13:11:44.607Z,22.73
2023-01-30T13:14:20.954Z,23.55
2023-01-30T13:17:02.354Z,22.02
2023-01-30T13:19:41.204Z,24.55
2023-01-30T13:22:16.022Z,22.23
2023-01-30T13:24:53.065Z,22.00
2023-01-30T13:27:23.974Z,16.63
2023-01-30T13:29:54.515Z,23.85
2023-01-30T13:32:32.472Z,22.90
2023-01-30T13:35:01.852Z,29.40
2023-01-30T13:37:31.707Z,22.70
2023-01-30T13:40:06.553Z,26.02
2023-01-30T13:42:40.125Z,23.17
2023-01-30T13:45:16.631Z,27.00
2023-01-30T13:47:54.918Z,23.52
2023-01-30T13:50:34.258Z,23.13
2023-01-30T13:53:08.286Z,23.58
2023-01-30T13:55:45.495Z,25.40
2023-01-30T13:58:25.297Z,21.73
2023-01-30T14:00:55.605Z,25.67
2023-01-30T14:03:29.090Z,24.98
2023-01-30T14:06:11.616Z,23.52
2023-01-30T14:08:42.990Z,20.77
2023-01-30T14:11:38.676Z,22.60
2023-01-30T14:14:24.728Z,21.95
2023-01-30T14:16:55.883Z,23.02
2023-01-30T14:19:37.840Z,26.67
2023-01-30T14:22:25.821Z,23.67
2023-01-30T14:25:46.465Z,25.85
2023-01-30T14:31:04.888Z,26.67
2023-01-30T14:33:36.306Z,27.70
2023-01-30T14:36:36.836Z,29.85
2023-01-30T14:39:40.662Z,27.40
2023-01-30T14:42:23.146Z,24.67
2023-01-30T14:45:03.820Z,22.98
2023-01-30T14:47:42.552Z,23.10
2023-01-30T14:50:20.541Z,30.67
2023-01-30T14:52:50.441Z,30.60
2023-01-30T14:55:23.493Z,25.77
2023-01-30T14:57:56.252Z,30.05
2023-01-30T15:00:29.551Z,31.05
2023-01-30T15:03:01.323Z,30.15
2023-01-30T15:05:33.286Z,32.63
2023-01-30T15:08:08.544Z,36.65
2023-01-30T15:10:56.040Z,29.58
2023-01-30T15:13:50.143Z,28.70
2023-01-30T15:17:03.039Z,32.83
2023-01-30T15:19:44.863Z,35.90
2023-01-30T15:22:19.809Z,38.15
2023-01-30T15:25:14.149Z,22.30
2023-01-30T15:27:53.955Z,29.90
2023-01-30T15:30:28.735Z,32.85
2023-01-30T15:33:10.216Z,27.88
2023-01-30T15:35:42.826Z,29.42
2023-01-30T15:38:25.443Z,30.23
2023-01-30T15:40:55.051Z,32.08
2023-01-30T15:43:40.527Z,30.40
2023-01-30T15:46:14.871Z,29.08
2023-01-30T15:48:56.445Z,26.48
2023-01-30T15:51:29.478Z,30.63
2023-01-30T15:53:59.294Z,32.25
2023-01-30T15:56:31.213Z,28.33
2023-01-30T15:59:01.106Z,34.47
2023-01-30T16:01:30.313Z,39.15
2023-01-30T16:04:00.544Z,25.10
2023-01-30T16:06:34.514Z,30.45
2023-01-30T16:09:06.324Z,34.22
2023-01-30T16:11:40.798Z,25.42
2023-01-30T16:14:14.317Z,25.48
2023-01-30T16:16:46.293Z,25.25
2023-01-30T16:19:22.373Z,23.05
2023-01-30T16:21:52.918Z,25.20
2023-01-30T16:24:24.952Z,28.65
2023-01-30T16:26:57.713Z,27.67
2023-01-30T16:29:28.965Z,28.08
2023-01-30T16:31:58.122Z,33.63
2023-01-30T16:34:31.882Z,23.67
2023-01-30T16:37:05.978Z,25.70
2023-01-30T16:39:36.318Z,21.52
2023-01-30T16:42:23.300Z,25.65
2023-01-30T16:44:52.427Z,30.38
2023-01-30T16:47:25.833Z,23.30
2023-01-30T16:49:54.877Z,26.00
2023-01-30T16:52:26.775Z,28.47
2023-01-30T16:54:56.901Z,30.00
2023-01-30T16:57:37.119Z,22.77
2023-01-30T17:02:39.230Z,23.80
2023-01-30T17:05:20.214Z,21.05
2023-01-30T17:07:51.662Z,28.73
2023-01-30T17:10:55.457Z,18.38
2023-01-30T17:13:36.145Z,21.88
2023-01-30T17:16:34.881Z,21.60
2023-01-30T17:19:04.393Z,20.77
2023-01-30T17:21:38.738Z,25.48
2023-01-30T17:24:14.514Z,22.30
2023-01-30T17:26:43.945Z,22.92
2023-01-30T17:29:28.848Z,18.42
2023-01-30T17:32:10.257Z,22.85
2023-01-30T17:34:41.481Z,15.85
2023-01-30T17:37:16.256Z,24.25
2023-01-30T17:39:47.163Z,14.55
2023-01-30T17:42:21.164Z,19.30
2023-01-30T17:44:50.447Z,19.58
2023-01-30T17:47:19.650Z,14.25
2023-01-30T17:49:48.589Z,22.70
2023-01-30T17:52:19.039Z,18.88
2023-01-30T17:54:49.771Z,19.65
2023-01-30T17:57:20.343Z,21.55
2023-01-30T17:59:49.389Z,19.20
2023-01-30T18:02:19.127Z,23.17
2023-01-30T18:04:47.847Z,17.10
2023-01-30T18:07:17.147Z,18.63
2023-01-30T18:09:46.267Z,15.50
2023-01-30T18:12:16.747Z,16.80
2023-01-30T18:14:46.015Z,20.42
2023-01-30T18:17:15.156Z,21.40
2023-01-30T18:19:43.900Z,18.90
2023-01-30T18:22:13.041Z,18.08
2023-01-30T18:24:42.216Z,24.25
2023-01-30T18:27:11.282Z,21.30
2023-01-30T18:29:41.833Z,17.58
2023-01-30T18:32:10.835Z,18.13
2023-01-30T18:34:39.549Z,16.45
2023-01-30T18:37:08.572Z,21.75
2023-01-30T18:39:39.575Z,17.50
2023-01-30T18:42:09.017Z,18.83
2023-01-30T18:44:38.138Z,15.85
2023-01-30T18:47:08.801Z,16.45
2023-01-30T18:49:37.665Z,14.45
2023-01-30T18:52:06.804Z,16.73
2023-01-30T18:54:37.551Z,17.45
2023-01-30T18:57:07.020Z,20.40
2023-01-30T18:59:36.019Z,14.82
2023-01-30T19:02:05.279Z,18.50
2023-01-30T19:04:35.780Z,21.85
2023-01-30T19:07:05.143Z,19.98
2023-01-30T19:09:34.929Z,18.30
2023-01-30T19:12:21.666Z,20.25
2023-01-30T19:14:50.897Z,25.65
2023-01-30T19:17:20.052Z,24.98
2023-01-30T19:19:50.436Z,17.58
2023-01-30T19:22:19.597Z,19.95
2023-01-30T19:24:48.770Z,21.52
2023-01-30T19:27:18.004Z,20.77
2023-01-30T19:29:47.192Z,21.45
2023-01-30T19:32:16.279Z,21.17
2023-01-30T19:34:45.329Z,24.00
2023-01-30T19:37:15.960Z,21.17
2023-01-30T19:39:45.095Z,21.65
2023-01-30T19:42:16.236Z,19.38
2023-01-30T19:44:45.353Z,18.88
2023-01-30T19:47:14.371Z,24.27
2023-01-30T19:49:43.875Z,20.02
2023-01-30T19:52:12.934Z,20.70
2023-01-30T19:54:44.183Z,18.27
2023-01-30T19:57:13.464Z,24.42
2023-01-30T19:59:43.871Z,20.37
2023-01-30T20:02:13.300Z,19.52
2023-01-30T20:04:42.073Z,19.17
2023-01-30T20:07:11.172Z,24.55
2023-01-30T20:09:40.583Z,23.90
2023-01-30T20:12:11.399Z,24.40
2023-01-30T20:14:40.477Z,23.88
2023-01-30T20:17:09.505Z,18.88
2023-01-30T20:19:38.349Z,23.48
2023-01-30T20:22:08.514Z,24.95
2023-01-30T20:24:37.706Z,21.00
2023-01-30T20:27:06.893Z,21.60
2023-01-30T20:29:37.433Z,19.10
2023-01-30T20:32:07.013Z,19.25
2023-01-30T20:34:36.718Z,24.40
2023-01-30T20:37:05.795Z,17.00
2023-01-30T20:39:34.843Z,17.02
2023-01-30T20:42:03.960Z,21.92
2023-01-30T20:44:33.758Z,21.58
2023-01-30T20:47:04.659Z,18.25
2023-01-30T20:49:33.592Z,18.23
2023-01-30T20:52:03.054Z,20.15
2023-01-30T20:54:32.282Z,18.75
2023-01-30T20:57:02.725Z,20.08
2023-01-30T20:59:31.928Z,22.08
2023-01-30T21:02:00.896Z,22.10
2023-01-30T21:04:31.088Z,15.57
2023-01-30T21:07:00.222Z,17.63
2023-01-30T21:09:29.331Z,25.10
2023-01-30T21:11:58.533Z,23.05
2023-01-30T21:14:27.544Z,24.33
2023-01-30T21:16:56.273Z,18.27
2023-01-30T21:19:25.326Z,20.58
2023-01-30T21:21:56.342Z,19.55
2023-01-30T21:24:27.732Z,19.88
2023-01-30T21:26:57.324Z,19.90
2023-01-30T21:29:27.792Z,14.15
2023-01-30T21:31:57.326Z,14.43
2023-01-30T21:34:26.885Z,17.75
2023-01-30T21:37:20.081Z,17.47
2023-01-30T21:40:06.299Z,14.60
2023-01-30T21:42:52.315Z,20.45
2023-01-30T21:45:22.335Z,16.50
2023-01-30T21:50:20.864Z,22.30
2023-01-30T21:52:51.068Z,17.13
2023-01-30T21:55:20.487Z,18.67
2023-01-30T21:57:49.706Z,20.80
2023-01-30T22:00:19.328Z,18.13
2023-01-30T22:02:51.268Z,18.30
2023-01-30T22:05:20.544Z,19.70
2023-01-30T22:07:50.783Z,20.17
2023-01-30T22:10:20.041Z,17.23
2023-01-30T22:12:49.195Z,20.65
2023-01-30T22:15:20.955Z,17.38
2023-01-30T22:17:50.289Z,14.43
2023-01-30T22:20:19.480Z,19.38
2023-01-30T22:22:49.109Z,16.02
2023-01-30T22:25:19.942Z,13.15
2023-01-30T22:27:49.164Z,15.10
2023-01-30T22:30:19.244Z,15.57
2023-01-30T22:32:48.287Z,14.98
2023-01-30T22:35:17.629Z,17.90
2023-01-30T22:37:46.411Z,17.90
2023-01-30T22:40:15.776Z,15.75
2023-01-30T22:42:50.082Z,14.63
2023-01-30T22:45:19.604Z,14.82
2023-01-30T22:47:48.740Z,16.65
2023-01-30T22:50:18.459Z,16.60
2023-01-30T22:52:46.993Z,15.38
2023-01-30T22:55:16.125Z,17.27
2023-01-30T22:57:45.133Z,17.10
2023-01-30T23:00:18.367Z,17.63
2023-01-30T23:02:48.821Z,13.10
2023-01-30T23:05:18.273Z,16.60
2023-01-30T23:07:47.081Z,14.25
2023-01-30T23:10:16.103Z,20.17
2023-01-30T23:13:02.231Z,15.90
2023-01-30T23:15:35.693Z,15.82
2023-01-30T23:18:25.375Z,16.13
2023-01-30T23:20:54.426Z,18.15
2023-01-30T23:23:23.387Z,17.25
2023-01-30T23:25:52.034Z,17.50
2023-01-30T23:28:20.974Z,21.17
2023-01-30T23:30:49.936Z,15.85
2023-01-30T23:33:20.300Z,15.38
2023-01-30T23:35:49.264Z,20.58
2023-01-30T23:38:19.302Z,16.48
2023-01-30T23:40:48.866Z,17.65
2023-01-30T23:43:17.963Z,15.88
2023-01-30T23:45:46.977Z,16.17
2023-01-30T23:48:16.020Z,24.65
2023-01-30T23:50:46.357Z,15.70
2023-01-30T23:53:15.367Z,14.15
2023-01-30T23:55:52.328Z,15.27
2023-01-30T23:58:21.349Z,21.13
